Time;durP1;ratioP1;P1;durP2;ratioP2;P2;SDS_P1;SDS_P2;PMS_P1;PMS_P2;Temp;Humidity;BMP_temperature;BMP_pressure;BME280_temperature;BME280_humidity;BME280_pressure;Samples;Min_cycle;Max_cycle;Signal;HPM_P1;HPM_P2
2023/11/11 00:01:28;;;;;;;;;0.00;0.00;;;;;8.97;100.00;100455.44;5088600;27;55866;-84
2023/11/11 00:03:53;;;;;;;;;0.00;0.00;;;;;8.99;100.00;100448.47;5075259;28;46937;-83
2023/11/11 00:06:19;;;;;;;;;0.00;0.00;;;;;8.98;100.00;100463.19;5080020;27;71655;-83
2023/11/11 00:08:44;;;;;;;;;7.00;7.00;;;;;8.93;100.00;100457.25;5095905;27;45459;-82
2023/11/11 00:11:10;;;;;;;;;0.00;0.00;;;;;8.88;100.00;100456.56;5077394;27;45422;-83
2023/11/11 00:13:35;;;;;;;;;0.00;0.00;;;;;8.87;100.00;100457.44;5077229;27;45490;-83
2023/11/11 00:16:01;;;;;;;;;0.00;0.00;;;;;8.82;100.00;100460.16;5094822;27;45521;-83
2023/11/11 00:18:26;;;;;;;;;0.00;0.00;;;;;8.77;100.00;100456.84;5077627;27;45391;-83
2023/11/11 00:20:52;;;;;;;;;0.00;0.00;;;;;8.76;100.00;100451.69;5077173;27;49478;-83
2023/11/11 00:23:17;;;;;;;;;0.00;0.00;;;;;8.69;100.00;100453.56;5076971;27;46262;-83
2023/11/11 00:25:43;;;;;;;;;0.00;0.00;;;;;8.70;100.00;100455.28;5077203;27;52653;-83
2023/11/11 00:28:10;;;;;;;;;0.00;0.00;;;;;8.74;100.00;100459.50;5078916;27;45499;-82
2023/11/11 00:30:36;;;;;;;;;0.00;0.00;;;;;8.68;100.00;100454.47;5099126;27;45397;-83
2023/11/11 00:33:01;;;;;;;;;0.00;0.00;;;;;8.70;100.00;100453.53;5061923;28;45508;-83
2023/11/11 00:35:27;;;;;;;;;0.00;0.00;;;;;8.71;100.00;100460.44;5078682;28;46018;-82
2023/11/11 00:37:53;;;;;;;;;0.00;0.00;;;;;8.70;100.00;100455.28;5078613;27;59007;-83
2023/11/11 00:40:18;;;;;;;;;0.00;0.00;;;;;8.69;100.00;100458.75;5099256;27;45369;-82
2023/11/11 00:42:44;;;;;;;;;0.00;0.00;;;;;8.67;100.00;100458.81;5078170;27;68592;-83
2023/11/11 00:45:09;;;;;;;;;0.00;0.00;;;;;8.68;100.00;100462.25;5097159;27;45408;-83
2023/11/11 00:47:35;;;;;;;;;0.00;0.00;;;;;8.68;100.00;100464.84;5080781;27;45417;-83
2023/11/11 00:50:01;;;;;;;;;0.00;0.00;;;;;8.67;100.00;100458.81;5098452;27;45333;-83
2023/11/11 00:52:26;;;;;;;;;0.00;0.00;;;;;8.68;100.00;100465.69;5078972;27;45389;-82
2023/11/11 00:54:52;;;;;;;;;0.00;0.00;;;;;8.66;100.00;100466.63;5060313;27;45610;-82
2023/11/11 00:57:18;;;;;;;;;0.00;0.00;;;;;8.63;100.00;100461.50;5096567;27;45424;-82
2023/11/11 00:59:44;;;;;;;;;0.00;0.00;;;;;8.60;100.00;100462.47;5098776;27;45366;-82
2023/11/11 01:02:09;;;;;;;;;0.00;0.00;;;;;8.58;100.00;100459.06;5063136;27;46258;-82
2023/11/11 01:04:34;;;;;;;;;0.00;0.00;;;;;8.58;100.00;100459.06;5079318;27;72003;-81
2023/11/11 01:07:00;;;;;;;;;0.00;0.00;;;;;8.55;100.00;100459.13;5097365;27;64268;-82
2023/11/11 01:09:25;;;;;;;;;0.00;0.00;;;;;8.55;100.00;100453.09;5092303;27;45401;-82
2023/11/11 01:11:51;;;;;;;;;0.00;0.00;;;;;8.53;100.00;100460.91;5063667;28;69701;-82
2023/11/11 01:14:16;;;;;;;;;0.00;0.00;;;;;8.53;100.00;100468.69;5059575;27;45338;-83
2023/11/11 01:16:42;;;;;;;;;0.00;0.00;;;;;8.50;100.00;100471.34;5060074;28;45557;-83
2023/11/11 01:19:07;;;;;;;;;0.00;0.00;;;;;8.47;100.00;100474.88;5078061;27;45396;-83
2023/11/11 01:21:33;;;;;;;;;36.75;33.50;;;;;8.46;100.00;100475.75;5089741;27;45702;-82
2023/11/11 01:24:00;;;;;;;;;0.00;0.00;;;;;8.45;100.00;100474.06;5097881;27;45356;-82
2023/11/11 01:26:25;;;;;;;;;0.00;0.00;;;;;8.51;100.00;100484.28;5097682;27;45398;-82
2023/11/11 01:28:51;;;;;;;;;0.00;0.00;;;;;8.58;100.00;100482.41;5080235;27;45289;-82
2023/11/11 01:31:17;;;;;;;;;0.00;0.00;;;;;8.61;100.00;100471.09;5086858;27;47122;-82
2023/11/11 01:33:42;;;;;;;;;0.00;0.00;;;;;8.67;100.00;100476.97;5077653;28;45342;-82
2023/11/11 01:36:07;;;;;;;;;0.00;0.00;;;;;8.73;100.00;100475.97;5059185;27;58295;-82
2023/11/11 01:38:34;;;;;;;;;0.00;0.00;;;;;8.76;100.00;100482.81;5059710;28;45489;-83
2023/11/11 01:41:00;;;;;;;;;0.00;0.00;;;;;8.82;100.00;100477.47;5078468;27;45476;-83
2023/11/11 01:43:25;;;;;;;;;0.00;0.00;;;;;8.83;100.00;100479.19;5059125;28;45430;-82
2023/11/11 01:45:51;;;;;;;;;0.00;0.00;;;;;8.83;100.00;100479.19;5077080;28;47303;-82
2023/11/11 01:48:17;;;;;;;;;0.00;0.00;;;;;8.81;100.00;100478.38;5059535;28;45559;-82
2023/11/11 01:50:42;;;;;;;;;0.00;0.00;;;;;8.79;100.00;100474.97;5077072;28;46478;-82
2023/11/11 01:53:08;;;;;;;;;0.00;0.00;;;;;8.76;100.00;100478.47;5076483;28;66002;-83
2023/11/11 01:55:34;;;;;;;;;0.00;0.00;;;;;8.68;100.00;100472.63;5058914;28;45520;-83
2023/11/11 01:58:00;;;;;;;;;0.00;0.00;;;;;8.63;100.00;100472.72;5077062;28;52918;-82
2023/11/11 02:00:26;;;;;;;;;0.00;0.00;;;;;8.61;100.00;100481.47;5059170;28;47364;-82
2023/11/11 02:02:53;;;;;;;;;0.00;0.00;;;;;8.59;100.00;100478.06;5058442;28;62125;-83
2023/11/11 02:05:19;;;;;;;;;0.00;0.00;;;;;8.57;100.00;100478.09;5058868;28;45431;-82
2023/11/11 02:07:45;;;;;;;;;0.00;0.00;;;;;8.52;100.00;100480.81;5077430;28;45440;-83
2023/11/11 02:10:13;;;;;;;;;0.00;0.00;;;;;8.53;100.00;100492.03;5055026;28;45512;-82
2023/11/11 02:12:38;;;;;;;;;0.00;0.00;;;;;8.50;100.00;100482.56;5039199;28;45388;-83
2023/11/11 02:15:04;;;;;;;;;0.00;0.00;;;;;8.52;100.00;100488.59;5071636;28;45345;-82
2023/11/11 02:17:29;;;;;;;;;0.00;0.00;;;;;8.57;100.00;100492.81;5058963;28;45738;-82
2023/11/11 02:19:55;;;;;;;;;0.00;0.00;;;;;8.63;100.00;100495.25;5076450;28;51724;-83
2023/11/11 02:22:20;;;;;;;;;0.00;0.00;;;;;8.69;100.00;100498.56;5038785;28;67406;-83
2023/11/11 02:24:47;;;;;;;;;0.00;0.00;;;;;8.69;100.00;100493.38;5067862;28;45278;-83
2023/11/11 02:27:12;;;;;;;;;0.00;0.00;;;;;8.69;100.00;100490.75;5059107;28;45419;-82
2023/11/11 02:29:44;;;;;;;;;0.00;0.00;;;;;8.66;100.00;100498.63;5058600;28;46106;-82
2023/11/11 02:32:10;;;;;;;;;0.00;0.00;;;;;8.63;100.00;100497.84;5076714;28;45338;-82
2023/11/11 02:34:35;;;;;;;;;0.00;0.00;;;;;8.61;100.00;100502.22;5056863;28;67562;-83
2023/11/11 02:37:00;;;;;;;;;0.00;0.00;;;;;8.56;100.00;100497.13;5058836;28;45285;-83
2023/11/11 02:39:25;;;;;;;;;0.00;0.00;;;;;8.56;100.00;100493.69;5074953;28;75549;-82
2023/11/11 02:41:52;;;;;;;;;0.00;0.00;;;;;8.52;100.00;100493.78;5057493;28;67511;-82
2023/11/11 02:44:17;;;;;;;;;0.00;0.00;;;;;8.50;100.00;100489.50;5044149;28;45575;-83
2023/11/11 02:46:43;;;;;;;;;0.00;0.00;;;;;8.47;100.00;100493.03;5055781;28;60581;-83
2023/11/11 02:49:08;;;;;;;;;0.00;0.00;;;;;8.47;100.00;100498.22;5061776;28;46327;-82
2023/11/11 02:51:34;;;;;;;;;0.00;0.00;;;;;8.45;100.00;100489.63;5075931;28;45412;-82
2023/11/11 02:54:00;;;;;;;;;0.00;0.00;;;;;8.46;100.00;100496.50;5070387;28;45348;-83
2023/11/11 02:56:25;;;;;;;;;0.00;0.00;;;;;8.42;100.00;100487.09;5056351;28;45337;-83
2023/11/11 02:58:50;;;;;;;;;0.00;0.00;;;;;8.58;100.00;100489.31;5064504;28;74322;-82
2023/11/11 03:01:16;;;;;;;;;0.00;0.00;;;;;8.45;100.00;100487.03;5055835;28;63858;-82
2023/11/11 03:03:41;;;;;;;;;0.00;0.00;;;;;8.47;100.00;100490.44;5058526;28;66123;-82
2023/11/11 03:06:06;;;;;;;;;0.00;0.00;;;;;8.51;100.00;100504.19;5075422;28;64933;-82
2023/11/11 03:08:36;;;;;;;;;0.00;0.00;;;;;8.54;100.00;100498.91;5073096;28;45504;-82
2023/11/11 03:11:03;;;;;;;;;0.00;0.00;;;;;8.57;100.00;100506.63;5056666;28;45649;-82
2023/11/11 03:13:28;;;;;;;;;0.00;0.00;;;;;8.61;100.00;100503.06;5076264;28;45438;-82
2023/11/11 03:15:54;;;;;;;;;0.00;0.00;;;;;8.74;100.00;100515.75;5075184;28;45451;-82
2023/11/11 03:18:19;;;;;;;;;0.00;0.00;;;;;8.97;100.00;100509.97;5055678;28;59964;-82
2023/11/11 03:20:44;;;;;;;;;0.00;0.00;;;;;8.77;100.00;100515.69;5054256;28;53918;-83
2023/11/11 03:23:10;;;;;;;;;0.00;0.00;;;;;9.09;100.00;100523.47;5054775;28;60926;-82
2023/11/11 03:25:35;;;;;;;;;0.00;0.00;;;;;9.04;100.00;100520.13;5055892;28;45378;-82
2023/11/11 03:28:01;;;;;;;;;0.00;0.00;;;;;9.05;100.00;100519.25;5070128;28;47186;-83
2023/11/11 03:30:26;;;;;;;;;0.00;0.00;;;;;9.13;100.00;100523.41;5074349;28;64742;-83
2023/11/11 03:32:51;;;;;;;;;0.00;0.00;;;;;9.20;100.00;100535.34;5074051;28;45439;-83
2023/11/11 03:35:17;;;;;;;;;0.00;0.00;;;;;9.18;100.00;100540.56;5075142;28;68656;-82
2023/11/11 03:37:43;;;;;;;;;0.00;0.00;;;;;9.17;100.00;100538.00;5059002;28;45477;-83
2023/11/11 03:40:10;;;;;;;;;0.00;0.00;;;;;9.17;100.00;100535.41;5054855;28;69526;-83
2023/11/11 03:42:36;;;;;;;;;0.00;0.00;;;;;9.16;100.00;100536.31;5056710;28;45389;-82
2023/11/11 03:45:01;;;;;;;;;0.00;0.00;;;;;9.16;100.00;100529.38;5073194;27;45420;-83
2023/11/11 03:47:26;;;;;;;;;0.00;0.00;;;;;9.14;100.00;100528.56;5087285;27;56593;-82
2023/11/11 03:49:52;;;;;;;;;0.00;0.00;;;;;9.16;100.00;100534.56;5077206;27;66596;-82
2023/11/11 03:52:17;;;;;;;;;0.00;0.00;;;;;9.15;100.00;100532.84;5094943;27;63875;-82
2023/11/11 03:54:43;;;;;;;;;0.00;0.00;;;;;9.15;100.00;100534.59;5077926;27;45381;-82
2023/11/11 03:57:08;;;;;;;;;0.00;0.00;;;;;9.13;100.00;100541.59;5095024;27;48125;-82
2023/11/11 03:59:36;;;;;;;;;0.00;0.00;;;;;9.14;100.00;100538.06;5077902;27;45334;-82
2023/11/11 04:02:02;;;;;;;;;0.00;0.00;;;;;9.14;100.00;100538.06;5078511;27;45546;-82
2023/11/11 04:04:28;;;;;;;;;0.00;0.00;;;;;9.13;100.00;100534.63;5063589;27;60548;-82
2023/11/11 04:06:53;;;;;;;;;0.00;0.00;;;;;9.14;100.00;100538.06;5099043;27;45614;-83
2023/11/11 04:09:19;;;;;;;;;0.00;0.00;;;;;9.13;100.00;100531.19;5081343;27;45467;-83
2023/11/11 04:11:44;;;;;;;;;3.67;3.67;;;;;9.11;100.00;100526.03;5099433;27;46804;-82
2023/11/11 04:14:09;;;;;;;;;0.00;0.00;;;;;9.09;100.00;100535.63;5081441;27;45503;-83
2023/11/11 04:16:35;;;;;;;;;0.00;0.00;;;;;9.06;100.00;100536.56;5080779;27;56579;-83
2023/11/11 04:19:00;;;;;;;;;0.00;0.00;;;;;9.05;100.00;100537.44;5064164;27;45258;-83
2023/11/11 04:21:25;;;;;;;;;0.00;0.00;;;;;9.07;100.00;100542.59;5099319;27;45427;-83
2023/11/11 04:23:51;;;;;;;;;0.00;0.00;;;;;9.12;100.00;100548.53;5080322;27;59254;-83
2023/11/11 04:26:16;;;;;;;;;0.00;0.00;;;;;9.15;100.00;100552.78;5076510;27;46577;-83
2023/11/11 04:28:45;;;;;;;;;0.00;0.00;;;;;9.20;100.00;100556.97;5059472;28;70199;-82
2023/11/11 04:31:17;;;;;;;;;0.00;0.00;;;;;9.24;100.00;100560.31;5078697;28;45400;-82
2023/11/11 04:33:42;;;;;;;;;0.00;0.00;;;;;9.25;100.00;100562.06;5078997;27;45437;-82
2023/11/11 04:36:07;;;;;;;;;0.00;0.00;;;;;9.34;100.00;100566.13;5077052;28;75817;-82
2023/11/11 04:38:36;;;;;;;;;0.00;0.00;;;;;9.34;100.00;100574.75;5076684;28;59012;-82
2023/11/11 04:41:04;;;;;;;;;0.00;0.00;;;;;9.27;100.00;100574.09;5078781;28;45335;-83
2023/11/11 04:43:31;;;;;;;;;0.00;0.00;;;;;9.28;100.00;100573.19;5078349;28;45516;-82
2023/11/11 04:45:58;;;;;;;;;0.00;0.00;;;;;9.27;100.00;100568.91;5060070;28;48025;-82
2023/11/11 04:48:23;;;;;;;;;0.00;0.00;;;;;9.26;100.00;100561.13;5060485;28;45473;-82
2023/11/11 04:50:50;;;;;;;;;0.00;0.00;;;;;9.29;100.00;100572.31;5078063;28;45419;-83
2023/11/11 04:53:15;;;;;;;;;0.00;0.00;;;;;9.19;100.00;100564.78;5078539;28;45305;-82
2023/11/11 04:55:40;;;;;;;;;0.00;0.00;;;;;9.21;100.00;100563.00;5059329;28;71162;-83
2023/11/11 04:58:07;;;;;;;;;0.00;0.00;;;;;9.21;100.00;100563.00;5059204;28;71785;-82
2023/11/11 05:00:32;;;;;;;;;0.00;0.00;;;;;9.20;100.00;100562.16;5043591;28;45377;-83
2023/11/11 05:02:57;;;;;;;;;0.00;0.00;;;;;9.15;100.00;100571.78;5059777;28;52706;-82
2023/11/11 05:05:23;;;;;;;;;0.00;0.00;;;;;9.07;100.00;100569.41;5058553;28;75897;-82
2023/11/11 05:07:49;;;;;;;;;0.00;0.00;;;;;9.04;100.00;100571.22;5077449;28;45449;-82
2023/11/11 05:10:16;;;;;;;;;0.00;0.00;;;;;9.23;100.00;100569.00;5057331;28;65868;-82
2023/11/11 05:12:41;;;;;;;;;0.00;0.00;;;;;9.05;100.00;100580.72;5057180;28;45515;-82
2023/11/11 05:15:14;;;;;;;;;0.00;0.00;;;;;8.97;100.00;100580.94;5056256;28;46396;-82
2023/11/11 05:17:43;;;;;;;;;0.00;0.00;;;;;8.95;100.00;100574.88;5074564;28;45476;-83
2023/11/11 05:20:10;;;;;;;;;0.00;0.00;;;;;8.97;100.00;100572.25;5077850;28;45418;-82
2023/11/11 05:22:36;;;;;;;;;0.00;0.00;;;;;8.92;100.00;100580.19;5055735;28;45540;-82
2023/11/11 05:25:01;;;;;;;;;0.00;0.00;;;;;8.89;100.00;100588.03;5071697;28;47222;-82
2023/11/11 05:27:27;;;;;;;;;0.00;0.00;;;;;8.88;100.00;100587.19;5077566;28;45556;-83
2023/11/11 05:29:52;;;;;;;;;0.00;0.00;;;;;8.87;100.00;100579.44;5059871;28;45337;-82
2023/11/11 05:32:18;;;;;;;;;0.00;0.00;;;;;8.81;100.00;100577.84;5059854;28;45630;-83
2023/11/11 05:34:44;;;;;;;;;0.00;0.00;;;;;8.81;100.00;100580.44;5076575;28;70927;-82
2023/11/11 05:37:10;;;;;;;;;0.00;0.00;;;;;8.75;100.00;100585.78;5059350;28;45380;-82
2023/11/11 05:39:36;;;;;;;;;0.00;0.00;;;;;8.74;100.00;100598.78;5076628;27;45313;-82
2023/11/11 05:42:02;;;;;;;;;1.00;1.00;;;;;8.72;100.00;100591.88;5076049;28;45755;-83
2023/11/11 05:44:28;;;;;;;;;0.00;0.00;;;;;8.72;100.00;100598.81;5058947;28;48080;-83
2023/11/11 05:46:53;;;;;;;;;0.00;0.00;;;;;8.70;100.00;100596.25;5059692;28;45472;-82
2023/11/11 05:49:18;;;;;;;;;0.00;0.00;;;;;8.71;100.00;100610.06;5076225;28;45314;-83
2023/11/11 05:51:45;;;;;;;;;0.00;0.00;;;;;8.71;100.00;100608.34;5076522;28;45433;-83
2023/11/11 05:54:11;;;;;;;;;0.00;0.00;;;;;8.72;100.00;100604.00;5077429;28;46322;-83
2023/11/11 05:56:38;;;;;;;;;0.00;0.00;;;;;8.71;100.00;100607.47;5076241;28;45317;-82
2023/11/11 05:59:04;;;;;;;;;0.00;0.00;;;;;8.69;100.00;100611.84;5076259;28;45466;-82
2023/11/11 06:01:29;;;;;;;;;0.00;0.00;;;;;8.67;100.00;100611.03;5075888;28;45294;-82
2023/11/11 06:03:54;;;;;;;;;0.00;0.00;;;;;8.63;100.00;100607.66;5077230;28;45437;-82
2023/11/11 06:06:20;;;;;;;;;0.00;0.00;;;;;8.60;100.00;100606.88;5076391;28;45591;-82
2023/11/11 06:08:47;;;;;;;;;0.00;0.00;;;;;8.57;100.00;100623.38;5072796;28;45423;-83
2023/11/11 06:11:12;;;;;;;;;0.00;0.00;;;;;8.70;100.00;100629.16;5039248;28;45529;-82
2023/11/11 06:13:37;;;;;;;;;0.00;0.00;;;;;8.71;100.00;100633.44;5059550;28;60765;-82
2023/11/11 06:16:04;;;;;;;;;0.00;0.00;;;;;8.69;100.00;100643.88;5057678;28;72195;-81
2023/11/11 06:18:30;;;;;;;;;0.00;0.00;;;;;8.69;100.00;100633.50;5059170;28;45413;-82
2023/11/11 06:20:56;;;;;;;;;0.00;0.00;;;;;8.74;100.00;100635.97;5058854;28;47543;-82
2023/11/11 06:23:21;;;;;;;;;0.00;0.00;;;;;8.74;100.00;100638.56;5058606;28;47256;-82
2023/11/11 06:25:47;;;;;;;;;0.00;0.00;;;;;8.74;100.00;100633.38;5075885;28;45298;-82
2023/11/11 06:28:12;;;;;;;;;0.00;0.00;;;;;8.75;100.00;100637.69;5059120;28;45278;-83
2023/11/11 06:30:38;;;;;;;;;0.00;0.00;;;;;8.76;100.00;100635.94;5076567;28;45330;-82
2023/11/11 06:33:03;;;;;;;;;0.00;0.00;;;;;8.78;100.00;100634.16;5056211;28;52573;-82
2023/11/11 06:35:28;;;;;;;;;0.00;0.00;;;;;8.77;100.00;100630.72;5058744;28;45365;-82
2023/11/11 06:37:56;;;;;;;;;0.00;0.00;;;;;8.80;100.00;100630.63;5058858;28;45342;-82
2023/11/11 06:40:24;;;;;;;;;0.00;0.00;;;;;8.79;100.00;100636.72;5058912;28;45540;-82
2023/11/11 06:42:49;;;;;;;;;0.00;0.00;;;;;8.83;100.00;100643.53;5076612;28;47013;-82
2023/11/11 06:45:16;;;;;;;;;0.00;0.00;;;;;8.86;100.00;100645.22;5075218;27;45310;-82
2023/11/11 06:47:41;;;;;;;;;0.00;0.00;;;;;8.85;100.00;100648.69;5097315;27;45302;-82
2023/11/11 06:50:07;;;;;;;;;0.00;0.00;;;;;8.88;100.00;100646.88;5097225;27;45305;-82
2023/11/11 06:52:34;;;;;;;;;0.00;0.00;;;;;8.90;100.00;100650.31;5078588;27;47200;-82
2023/11/11 06:55:03;;;;;;;;;0.00;0.00;;;;;8.91;100.00;100652.03;5078919;27;45427;-82
2023/11/11 06:57:29;;;;;;;;;0.00;0.00;;;;;8.93;100.00;100658.91;5082426;27;45416;-82
2023/11/11 06:59:54;;;;;;;;;0.00;0.00;;;;;8.94;100.00;100652.84;5076251;28;45435;-82
2023/11/11 07:02:22;;;;;;;;;0.00;0.00;;;;;8.96;100.00;100649.31;5076210;28;46098;-82
2023/11/11 07:04:53;;;;;;;;;0.00;0.00;;;;;8.93;100.00;100651.97;5076205;27;45407;-83
2023/11/11 07:07:20;;;;;;;;;0.00;0.00;;;;;8.96;100.00;100654.50;5081468;27;45311;-82
2023/11/11 07:09:49;;;;;;;;;0.00;0.00;;;;;8.99;100.00;100666.53;5079433;27;45671;-82
2023/11/11 07:12:17;;;;;;;;;0.00;0.00;;;;;9.00;100.00;100655.28;5058621;28;46345;-82
2023/11/11 07:14:42;;;;;;;;;0.00;0.00;;;;;9.03;100.00;100656.06;5058113;28;45488;-83
2023/11/11 07:17:10;;;;;;;;;0.00;0.00;;;;;9.13;100.00;100668.81;5058531;28;45342;-82
2023/11/11 07:19:35;;;;;;;;;0.00;0.00;;;;;9.20;100.00;100671.22;5076308;28;45509;-82
2023/11/11 07:22:02;;;;;;;;;0.00;0.00;;;;;9.28;100.00;100674.47;5075347;28;66747;-82
2023/11/11 07:24:28;;;;;;;;;0.00;0.00;;;;;9.38;100.00;100684.66;5074606;28;45391;-82
2023/11/11 07:26:53;;;;;;;;;0.00;0.00;;;;;9.41;100.00;100685.41;5092287;27;45333;-79
2023/11/11 07:29:19;;;;;;;;;0.00;0.00;;;;;9.39;100.00;100694.16;5076058;28;45330;-80
2023/11/11 07:31:46;;;;;;;;;0.00;0.00;;;;;9.37;100.00;100689.00;5087545;27;47110;-79
2023/11/11 07:34:12;;;;;;;;;0.00;0.00;;;;;9.32;100.00;100682.22;5058286;28;45466;-80
2023/11/11 07:36:37;;;;;;;;;0.00;0.00;;;;;9.27;100.00;100693.56;5077460;28;45393;-78
2023/11/11 07:39:03;;;;;;;;;0.00;0.00;;;;;9.23;100.00;100698.84;5078742;28;70298;-82
2023/11/11 07:41:28;;;;;;;;;0.00;0.00;;;;;9.20;100.00;100696.34;5061203;28;45360;-80
2023/11/11 07:43:54;;;;;;;;;0.00;0.00;;;;;9.18;100.00;100698.13;5078162;27;64644;-81
2023/11/11 07:46:20;;;;;;;;;0.00;0.00;;;;;9.36;100.00;100704.63;5061501;28;45382;-83
2023/11/11 07:48:45;;;;;;;;;0.00;0.00;;;;;9.46;100.00;100693.97;5080126;28;45471;-83
2023/11/11 07:51:10;;;;;;;;;0.00;0.00;;;;;9.50;100.00;100702.53;5060723;28;72239;-82
2023/11/11 07:53:36;;;;;;;;;0.00;0.00;;;;;9.53;100.00;100704.19;5057633;28;45394;-81
2023/11/11 07:56:02;;;;;;;;;0.00;0.00;;;;;9.56;100.00;100715.38;5065749;28;45647;-80
2023/11/11 07:58:27;;;;;;;;;0.00;0.00;;;;;9.60;100.00;100717.03;5072414;28;45508;-80
2023/11/11 08:00:53;;;;;;;;;0.00;0.00;;;;;9.62;100.00;100722.16;5062690;28;59299;-79
2023/11/11 08:03:18;;;;;;;;;0.00;0.00;;;;;9.61;100.00;100715.25;5079151;28;45400;-79
2023/11/11 08:05:44;;;;;;;;;0.00;0.00;;;;;9.63;100.00;100724.72;5078815;28;45397;-81
2023/11/11 08:08:10;;;;;;;;;0.00;0.00;;;;;9.69;100.00;100726.31;5078832;28;45462;-79
2023/11/11 08:10:36;;;;;;;;;0.00;0.00;;;;;9.74;100.00;100721.84;5058702;28;47070;-80
2023/11/11 08:13:01;;;;;;;;;0.00;0.00;;;;;9.80;100.00;100729.50;5060469;28;45362;-80
2023/11/11 08:15:27;;;;;;;;;0.00;0.00;;;;;9.84;100.00;100727.66;5062730;28;45577;-81
2023/11/11 08:17:52;;;;;;;;;0.00;0.00;;;;;9.63;100.00;100727.31;5074585;28;45538;-79
2023/11/11 08:20:18;;;;;;;;;0.00;0.00;;;;;9.65;100.00;100724.69;5060446;28;46403;-80
2023/11/11 08:22:43;;;;;;;;;0.00;0.00;;;;;9.67;100.00;100721.16;5073574;28;45317;-77
2023/11/11 08:25:13;;;;;;;;;0.00;0.00;;;;;9.74;100.00;100734.00;5065412;28;67261;-77
2023/11/11 08:27:42;;;;;;;;;0.00;0.00;;;;;9.84;100.00;100733.75;5069732;28;45216;-77
2023/11/11 08:30:10;;;;;;;;;0.00;0.00;;;;;9.92;100.00;100727.44;5060886;28;45682;-77
2023/11/11 08:32:42;;;;;;;;;0.00;0.00;;;;;9.99;100.00;100736.81;5075643;28;45469;-78
2023/11/11 08:35:08;;;;;;;;;0.00;0.00;;;;;10.01;100.00;100730.69;5061752;28;45487;-80
2023/11/11 08:37:33;;;;;;;;;0.00;0.00;;;;;10.06;100.00;100735.75;5059525;28;45376;-78
2023/11/11 08:40:01;;;;;;;;;0.00;0.00;;;;;10.12;100.00;100734.72;5063932;28;76684;-79
2023/11/11 08:42:27;;;;;;;;;0.00;0.00;;;;;10.16;100.00;100732.03;5076938;28;45510;-78
2023/11/11 08:44:57;;;;;;;;;0.00;0.00;;;;;10.19;100.00;100720.66;5095316;27;69319;-80
2023/11/11 08:47:22;;;;;;;;;0.00;0.00;;;;;10.19;100.00;100721.50;5064495;28;45514;-79
2023/11/11 08:49:48;;;;;;;;;0.00;0.00;;;;;10.59;100.00;100723.03;5073141;27;45586;-81
2023/11/11 08:52:13;;;;;;;;;0.00;0.00;;;;;10.66;100.00;100728.91;5098786;27;45365;-81
2023/11/11 08:54:39;;;;;;;;;0.00;0.00;;;;;10.74;100.00;100729.53;5085304;27;69124;-80
2023/11/11 08:57:04;;;;;;;;;0.00;0.00;;;;;10.84;100.00;100738.75;5083869;27;45275;-81
2023/11/11 08:59:30;;;;;;;;;0.00;0.00;;;;;10.91;100.00;100743.81;5084032;27;75842;-81
2023/11/11 09:01:55;;;;;;;;;0.00;0.00;;;;;10.73;100.00;100738.22;5059203;28;64854;-80
2023/11/11 09:04:20;;;;;;;;;0.00;0.00;;;;;10.79;100.00;100732.00;5078009;27;45389;-79
2023/11/11 09:06:46;;;;;;;;;0.00;0.00;;;;;10.88;100.00;100733.47;5079383;27;68383;-79
2023/11/11 09:09:14;;;;;;;;;0.00;0.00;;;;;10.80;100.00;100724.13;5094796;27;45530;-79
2023/11/11 09:11:40;;;;;;;;;0.00;0.00;;;;;10.86;100.00;100733.50;5094463;27;45361;-80
2023/11/11 09:14:05;;;;;;;;;0.00;0.00;;;;;10.87;100.00;100735.22;5077204;28;63354;-80
2023/11/11 09:16:32;;;;;;;;;0.00;0.00;;;;;10.91;100.00;100731.63;5086917;27;67599;-79
2023/11/11 09:19:03;;;;;;;;;0.00;0.00;;;;;10.95;100.00;100735.00;5079962;27;46541;-78
2023/11/11 09:21:28;;;;;;;;;0.00;0.00;;;;;11.00;100.00;100731.34;5078875;27;45436;-77
2023/11/11 09:23:54;;;;;;;;;0.00;0.00;;;;;11.04;100.00;100734.72;5098915;27;45679;-77
2023/11/11 09:26:20;;;;;;;;;0.00;0.00;;;;;11.10;100.00;100725.84;5078260;27;45458;-78
2023/11/11 09:28:46;;;;;;;;;0.00;0.00;;;;;11.09;100.00;100724.13;5078612;27;45371;-77
2023/11/11 09:31:14;;;;;;;;;0.00;0.00;;;;;11.10;100.00;100729.31;5082294;27;45472;-77
2023/11/11 09:33:40;;;;;;;;;0.00;0.00;;;;;11.11;100.00;100718.00;5074922;27;45617;-77
2023/11/11 09:36:06;;;;;;;;;0.00;0.00;;;;;11.13;100.00;100726.63;5097865;27;45380;-78
2023/11/11 09:38:32;;;;;;;;;0.00;0.00;;;;;11.12;100.00;100722.28;5090763;27;46379;-77
2023/11/11 09:40:58;;;;;;;;;0.00;0.00;;;;;11.08;100.00;100719.84;5080742;27;45359;-79
2023/11/11 09:43:23;;;;;;;;;0.00;0.00;;;;;11.04;100.00;100721.69;5086627;27;45823;-79
2023/11/11 09:45:50;;;;;;;;;0.00;0.00;;;;;11.03;100.00;100723.44;5084551;27;45590;-79
2023/11/11 09:48:16;;;;;;;;;0.00;0.00;;;;;11.07;100.00;100723.34;5076564;27;45465;-79
2023/11/11 09:50:44;;;;;;;;;0.00;0.00;;;;;11.14;100.00;100724.84;5075120;27;45349;-78
2023/11/11 09:53:11;;;;;;;;;1.00;1.00;;;;;11.41;100.00;100729.19;5073443;28;45457;-81
2023/11/11 09:55:37;;;;;;;;;0.00;0.00;;;;;11.55;100.00;100726.13;5076283;28;45448;-81
2023/11/11 09:58:03;;;;;;;;;0.00;0.00;;;;;11.68;100.00;100729.19;5062649;28;46975;-80
2023/11/11 10:00:30;;;;;;;;;1.00;0.00;;;;;11.86;100.00;100730.31;5062714;28;45480;-78
2023/11/11 10:02:56;;;;;;;;;0.00;0.00;;;;;12.04;100.00;100733.22;5076588;28;45393;-79
2023/11/11 10:05:21;;;;;;;;;0.00;0.00;;;;;12.15;100.00;100724.09;5075843;27;45475;-79
2023/11/11 10:07:47;;;;;;;;;0.00;0.00;;;;;12.23;100.00;100733.44;5076232;28;45424;-77
2023/11/11 10:10:13;;;;;;;;;0.00;0.00;;;;;12.13;100.00;100731.13;5075676;27;45482;-80
2023/11/11 10:12:39;;;;;;;;;0.00;0.00;;;;;12.04;100.00;100731.47;5075173;28;45408;-81
2023/11/11 10:15:06;;;;;;;;;0.00;0.00;;;;;11.85;100.00;100728.63;5076353;27;45529;-80
2023/11/11 10:31:18;;;;;;;;;0.00;0.00;;;;;11.93;100.00;100736.22;5110764;27;45378;-80
2023/11/11 10:33:43;;;;;;;;;0.00;0.00;;;;;12.26;100.00;100736.78;5093030;27;45510;-83
2023/11/11 10:36:09;;;;;;;;;3.00;3.00;;;;;12.51;100.00;100739.31;5091582;27;45373;-80
2023/11/11 10:38:34;;;;;;;;;0.00;0.00;;;;;12.76;100.00;100744.50;5073418;27;71735;-80
2023/11/11 10:40:59;;;;;;;;;0.00;0.00;;;;;13.09;100.00;100740.63;5090328;27;72900;-81
2023/11/11 10:43:28;;;;;;;;;0.00;0.00;;;;;13.38;100.00;100742.13;5090886;27;65181;-80
2023/11/11 10:45:54;;;;;;;;;0.00;0.00;;;;;13.64;100.00;100746.28;5091608;27;45325;-84
2023/11/11 10:48:23;;;;;;;;;0.00;0.00;;;;;14.17;100.00;100750.16;5091862;27;45387;-81
2023/11/11 10:50:51;;;;;;;;;0.00;0.00;;;;;14.71;100.00;100750.41;5092598;27;46580;-81
2023/11/11 10:53:17;;;;;;;;;0.00;0.00;;;;;17.16;100.00;100751.13;5091153;27;45737;-81
2023/11/11 10:55:46;;;;;;;;;0.00;0.00;;;;;19.57;100.00;100745.25;5092673;27;45355;-82
2023/11/11 10:58:17;;;;;;;;;0.00;0.00;;;;;19.60;100.00;100748.53;5091319;27;45365;-81
2023/11/11 11:00:43;;;;;;;;;0.00;0.00;;;;;20.75;100.00;100744.25;5092154;27;47294;-82
2023/11/11 11:03:08;;;;;;;;;0.00;0.00;;;;;21.20;100.00;100749.81;5091378;27;45413;-81
2023/11/11 11:05:40;;;;;;;;;0.00;0.00;;;;;19.87;100.00;100759.09;5093680;27;57409;-80
2023/11/11 11:08:15;;;;;;;;;0.00;0.00;;;;;18.63;100.00;100743.34;5074071;27;45662;-80
2023/11/11 11:11:15;;;;;;;;;0.00;0.00;;;;;17.78;100.00;100751.09;5089632;27;47439;-78
2023/11/11 11:13:42;;;;;;;;;0.00;0.00;;;;;17.64;100.00;100748.41;5112251;27;45383;-79
2023/11/11 11:16:14;;;;;;;;;0.00;0.00;;;;;18.60;100.00;100739.13;5090448;27;45537;-79
2023/11/11 11:18:41;;;;;;;;;0.00;0.00;;;;;18.87;100.00;100739.22;5092136;27;45349;-78
2023/11/11 11:21:08;;;;;;;;;0.00;0.00;;;;;18.14;100.00;100741.94;5092416;27;45378;-78
2023/11/11 11:23:40;;;;;;;;;0.00;0.00;;;;;17.53;100.00;100726.22;5091695;27;45330;-80
2023/11/11 11:26:05;;;;;;;;;0.00;0.00;;;;;16.81;100.00;100731.09;5087285;27;45841;-80
2023/11/11 11:28:31;;;;;;;;;0.00;0.00;;;;;16.12;100.00;100734.81;5091263;27;45450;-80
2023/11/11 11:30:58;;;;;;;;;0.00;0.00;;;;;15.58;100.00;100715.66;5085085;27;46262;-81
2023/11/11 11:33:39;;;;;;;;;;;;;;;;;;;;;